createdAt,value
2022-10-31T00:00:02.304Z,15.81
2022-10-31T00:02:31.761Z,15.72
2022-10-31T00:05:02.934Z,15.83
2022-10-31T00:07:32.431Z,15.74
2022-10-31T00:10:01.128Z,15.74
2022-10-31T00:12:35.124Z,15.83
2022-10-31T00:15:04.628Z,15.79
2022-10-31T00:17:33.181Z,15.61
2022-10-31T00:20:02.986Z,15.90
2022-10-31T00:22:31.821Z,15.95
2022-10-31T00:25:01.285Z,15.57
2022-10-31T00:27:29.959Z,15.85
2022-10-31T00:30:01.172Z,15.91
2022-10-31T00:32:32.516Z,15.94
2022-10-31T00:35:02.833Z,15.90
2022-10-31T00:37:31.809Z,15.95
2022-10-31T00:40:02.372Z,15.88
2022-10-31T00:42:34.616Z,15.57
2022-10-31T00:45:08.271Z,15.83
2022-10-31T00:47:37.300Z,15.65
2022-10-31T00:50:10.378Z,15.73
2022-10-31T00:52:39.187Z,15.78
2022-10-31T00:55:10.287Z,15.92
2022-10-31T00:57:38.851Z,15.78
2022-10-31T01:00:13.518Z,15.97
2022-10-31T01:02:42.669Z,15.62
2022-10-31T01:05:13.169Z,15.86
2022-10-31T01:07:43.972Z,15.93
2022-10-31T01:10:15.190Z,15.78
2022-10-31T01:12:52.169Z,15.91
2022-10-31T01:15:24.364Z,16.05
2022-10-31T01:17:54.548Z,15.93
2022-10-31T01:20:25.422Z,16.00
2022-10-31T01:22:54.226Z,15.93
2022-10-31T01:25:25.409Z,16.00
2022-10-31T01:27:53.747Z,15.96
2022-10-31T01:30:27.772Z,15.98
2022-10-31T01:32:56.871Z,15.84
2022-10-31T01:35:26.756Z,15.69
2022-10-31T01:37:55.436Z,15.79
2022-10-31T01:40:25.780Z,15.79
2022-10-31T01:42:54.923Z,15.80
2022-10-31T01:45:25.757Z,15.78
2022-10-31T01:47:56.335Z,15.78
2022-10-31T01:50:35.072Z,15.67
2022-10-31T01:53:07.620Z,15.61
2022-10-31T01:55:40.876Z,15.52
2022-10-31T01:58:15.545Z,15.58
2022-10-31T02:00:49.030Z,15.45
2022-10-31T02:03:19.097Z,15.47
2022-10-31T02:05:54.687Z,15.44
2022-10-31T02:08:28.720Z,15.40
2022-10-31T02:11:02.858Z,15.40
2022-10-31T02:13:37.456Z,15.36
2022-10-31T02:16:08.372Z,15.35
2022-10-31T02:18:38.518Z,15.30
2022-10-31T02:21:20.231Z,15.25
2022-10-31T02:24:33.305Z,15.25
2022-10-31T02:27:49.207Z,15.06
2022-10-31T02:30:21.126Z,15.12
2022-10-31T02:33:25.818Z,15.04
2022-10-31T02:36:08.156Z,15.06
2022-10-31T02:38:52.267Z,14.99
2022-10-31T02:41:35.327Z,14.99
2022-10-31T02:44:14.612Z,15.00
2022-10-31T02:46:51.269Z,14.93
2022-10-31T02:49:33.638Z,14.89
2022-10-31T02:52:16.215Z,14.86
2022-10-31T02:54:47.770Z,14.84
2022-10-31T02:57:20.242Z,14.81
2022-10-31T02:59:55.458Z,14.70
2022-10-31T03:02:46.551Z,14.74
2022-10-31T03:05:43.154Z,14.73
2022-10-31T03:08:24.085Z,14.66
2022-10-31T03:11:00.143Z,14.68
2022-10-31T03:13:39.076Z,14.62
2022-10-31T03:16:15.618Z,14.62
2022-10-31T03:18:48.963Z,14.64
2022-10-31T03:21:24.174Z,14.56
2022-10-31T03:23:57.552Z,14.58
2022-10-31T03:26:27.455Z,14.58
2022-10-31T03:29:01.671Z,14.52
2022-10-31T03:31:34.453Z,14.44
2022-10-31T03:34:06.624Z,14.45
2022-10-31T03:36:40.858Z,14.33
2022-10-31T03:39:15.187Z,14.37
2022-10-31T03:41:50.410Z,14.42
2022-10-31T03:44:22.357Z,14.40
2022-10-31T03:46:52.276Z,14.36
2022-10-31T03:49:21.268Z,14.36
2022-10-31T03:52:03.991Z,14.31
2022-10-31T03:54:42.993Z,14.33
2022-10-31T03:57:24.151Z,14.31
2022-10-31T04:00:00.881Z,14.23
2022-10-31T04:02:38.777Z,14.17
2022-10-31T04:05:12.934Z,14.13
2022-10-31T04:07:48.518Z,13.80
2022-10-31T04:10:22.861Z,14.06
2022-10-31T04:13:03.912Z,14.22
2022-10-31T04:15:36.304Z,13.99
2022-10-31T04:18:09.145Z,14.12
2022-10-31T04:20:42.133Z,14.01
2022-10-31T04:23:22.426Z,14.25
2022-10-31T04:25:52.018Z,14.35
2022-10-31T04:28:23.762Z,14.10
2022-10-31T04:30:55.136Z,13.95
2022-10-31T04:33:26.381Z,14.18
2022-10-31T04:35:55.067Z,14.29
2022-10-31T04:38:27.924Z,14.39
2022-10-31T04:40:56.320Z,14.56
2022-10-31T04:43:25.617Z,14.35
2022-10-31T04:45:55.469Z,14.48
2022-10-31T04:48:29.005Z,14.54
2022-10-31T04:51:02.739Z,14.54
2022-10-31T04:53:35.514Z,14.53
2022-10-31T04:56:04.483Z,14.55
2022-10-31T04:58:35.440Z,14.31
2022-10-31T05:01:04.745Z,14.44
2022-10-31T05:03:33.954Z,14.44
2022-10-31T05:06:02.407Z,14.40
2022-10-31T05:08:34.874Z,14.39
2022-10-31T05:11:06.154Z,14.35
2022-10-31T05:13:36.860Z,14.35
2022-10-31T05:16:12.423Z,14.32
2022-10-31T05:18:42.426Z,14.26
2022-10-31T05:21:11.221Z,14.23
2022-10-31T05:23:45.852Z,14.20
2022-10-31T05:26:17.079Z,14.17
2022-10-31T05:28:45.573Z,14.22
2022-10-31T05:31:14.236Z,14.20
2022-10-31T05:33:43.813Z,14.19
2022-10-31T05:36:13.064Z,14.06
2022-10-31T05:38:46.151Z,14.09
2022-10-31T05:41:15.757Z,14.06
2022-10-31T05:43:48.032Z,13.87
2022-10-31T05:46:17.528Z,13.86
2022-10-31T05:48:47.779Z,13.79
2022-10-31T05:51:28.317Z,13.77
2022-10-31T05:53:59.581Z,13.61
2022-10-31T05:56:29.271Z,13.82
2022-10-31T05:58:58.678Z,13.85
2022-10-31T06:01:27.738Z,13.86
2022-10-31T06:04:00.024Z,13.84
2022-10-31T06:06:34.964Z,13.82
2022-10-31T06:09:08.385Z,13.76
2022-10-31T06:11:39.259Z,13.77
2022-10-31T06:14:09.175Z,13.73
2022-10-31T06:16:43.657Z,13.74
2022-10-31T06:19:12.831Z,13.60
2022-10-31T06:21:42.923Z,13.64
2022-10-31T06:24:14.138Z,13.58
2022-10-31T06:26:45.716Z,13.56
2022-10-31T06:29:14.282Z,13.52
2022-10-31T06:31:44.218Z,13.54
2022-10-31T06:34:12.811Z,13.51
2022-10-31T06:36:44.184Z,13.46
2022-10-31T06:39:15.181Z,13.42
2022-10-31T06:41:44.963Z,13.41
2022-10-31T06:44:16.367Z,13.40
2022-10-31T06:46:45.029Z,13.35
2022-10-31T06:49:25.484Z,13.30
2022-10-31T06:54:39.110Z,13.21
2022-10-31T06:57:08.133Z,12.88
2022-10-31T06:59:38.472Z,13.12
2022-10-31T07:02:26.355Z,13.27
2022-10-31T07:04:56.025Z,13.40
2022-10-31T07:07:25.333Z,13.10
2022-10-31T07:09:57.609Z,13.39
2022-10-31T07:15:17.563Z,13.09
2022-10-31T07:20:40.035Z,13.54
2022-10-31T07:23:11.068Z,13.46
2022-10-31T07:25:50.024Z,13.56
2022-10-31T07:28:18.920Z,13.71
2022-10-31T07:30:53.599Z,13.84
2022-10-31T07:33:23.831Z,13.62
2022-10-31T07:35:52.880Z,13.95
2022-10-31T07:38:22.594Z,14.09
2022-10-31T07:40:55.253Z,13.80
2022-10-31T07:43:24.633Z,14.06
2022-10-31T07:45:56.229Z,14.35
2022-10-31T07:48:24.864Z,14.44
2022-10-31T07:50:53.621Z,14.53
2022-10-31T07:53:24.572Z,13.88
2022-10-31T07:55:55.094Z,14.01
2022-10-31T07:58:23.525Z,14.06
2022-10-31T08:00:52.613Z,14.35
2022-10-31T08:03:26.303Z,14.80
2022-10-31T08:05:55.596Z,14.79
2022-10-31T08:08:33.433Z,14.81
2022-10-31T08:11:10.620Z,14.83
2022-10-31T08:13:47.251Z,14.88
2022-10-31T08:16:18.815Z,15.10
2022-10-31T08:18:53.187Z,15.37
2022-10-31T08:21:23.345Z,15.34
2022-10-31T08:23:54.448Z,15.66
2022-10-31T08:26:24.801Z,15.31
2022-10-31T08:28:56.570Z,14.97
2022-10-31T08:31:33.152Z,14.86
2022-10-31T08:34:05.839Z,15.02
2022-10-31T08:36:36.208Z,15.74
2022-10-31T08:39:06.244Z,15.14
2022-10-31T08:41:38.809Z,15.04
2022-10-31T08:44:08.128Z,15.33
2022-10-31T08:46:36.850Z,15.27
2022-10-31T08:49:05.596Z,15.37
2022-10-31T08:51:34.508Z,15.87
2022-10-31T08:54:03.345Z,15.08
2022-10-31T08:56:38.789Z,15.81
2022-10-31T08:59:09.215Z,15.80
2022-10-31T09:01:37.833Z,16.18
2022-10-31T09:04:06.351Z,16.10
2022-10-31T09:06:35.167Z,16.22
2022-10-31T09:09:05.850Z,16.12
2022-10-31T09:11:37.190Z,15.85
2022-10-31T09:14:05.683Z,16.61
2022-10-31T09:16:35.494Z,16.46
2022-10-31T09:19:10.336Z,16.52
2022-10-31T09:21:40.300Z,17.01
2022-10-31T09:24:10.291Z,16.96
2022-10-31T09:26:41.382Z,16.49
2022-10-31T09:29:11.283Z,16.91
2022-10-31T09:31:45.053Z,16.87
2022-10-31T09:34:21.905Z,17.15
2022-10-31T09:36:52.563Z,17.90
2022-10-31T09:39:21.915Z,17.72
2022-10-31T09:42:11.551Z,17.24
2022-10-31T09:44:54.829Z,17.58
2022-10-31T09:47:49.798Z,18.48
2022-10-31T09:50:24.418Z,17.65
2022-10-31T09:53:03.202Z,17.77
2022-10-31T09:55:41.182Z,18.68
2022-10-31T09:58:21.702Z,19.11
2022-10-31T10:00:52.930Z,18.64
2022-10-31T10:03:34.743Z,19.02
2022-10-31T10:06:14.273Z,19.60
2022-10-31T10:08:43.376Z,19.81
2022-10-31T10:11:31.727Z,18.77
2022-10-31T10:14:34.994Z,18.79
2022-10-31T10:17:16.917Z,18.63
2022-10-31T10:20:14.945Z,19.26
2022-10-31T10:22:52.654Z,19.80
2022-10-31T10:25:25.788Z,19.14
2022-10-31T10:28:11.560Z,19.63
2022-10-31T10:30:45.450Z,19.66
2022-10-31T10:33:21.814Z,19.57
2022-10-31T10:36:00.410Z,19.07
2022-10-31T10:38:39.291Z,19.31
2022-10-31T10:41:16.318Z,19.20
2022-10-31T10:43:44.331Z,19.86
2022-10-31T10:46:54.550Z,19.02
2022-10-31T10:49:35.892Z,19.70
2022-10-31T10:52:39.626Z,19.55
2022-10-31T10:55:21.659Z,20.26
2022-10-31T10:58:02.982Z,20.05
2022-10-31T11:00:37.804Z,19.88
2022-10-31T11:03:09.547Z,19.53
2022-10-31T11:05:43.832Z,20.38
2022-10-31T11:08:13.269Z,20.72
2022-10-31T11:10:42.246Z,19.98
2022-10-31T11:13:25.811Z,20.10
2022-10-31T11:16:02.447Z,20.67
2022-10-31T11:18:38.983Z,20.71
2022-10-31T11:21:22.864Z,20.57
2022-10-31T11:23:51.764Z,20.17
2022-10-31T11:26:22.957Z,20.55
2022-10-31T11:29:05.173Z,20.15
2022-10-31T11:31:37.372Z,20.73
2022-10-31T11:34:23.784Z,21.20
2022-10-31T11:36:54.100Z,20.49
2022-10-31T11:39:25.953Z,20.29
2022-10-31T11:41:56.658Z,20.17
2022-10-31T11:44:31.073Z,21.16
2022-10-31T11:47:03.562Z,20.69
2022-10-31T11:49:37.069Z,20.72
2022-10-31T11:52:10.804Z,20.65
2022-10-31T11:54:51.197Z,20.50
2022-10-31T11:57:30.853Z,20.57
2022-10-31T12:00:04.487Z,21.09
2022-10-31T12:02:33.891Z,21.08
2022-10-31T12:05:22.728Z,21.83
2022-10-31T12:08:03.444Z,21.12
2022-10-31T12:10:43.533Z,20.39
2022-10-31T12:13:39.235Z,20.98
2022-10-31T12:16:23.333Z,20.80
2022-10-31T12:19:07.647Z,21.36
2022-10-31T12:22:04.468Z,21.39
2022-10-31T12:24:50.099Z,20.81
2022-10-31T12:27:32.279Z,20.72
2022-10-31T12:30:21.805Z,21.43
2022-10-31T12:33:32.461Z,21.08
2022-10-31T12:36:17.532Z,21.53
2022-10-31T12:39:36.670Z,21.23
2022-10-31T12:42:20.801Z,21.76
2022-10-31T12:45:16.296Z,21.11
2022-10-31T12:48:12.186Z,21.48
2022-10-31T12:50:58.833Z,21.53
2022-10-31T12:53:58.712Z,21.63
2022-10-31T12:56:48.245Z,21.81
2022-10-31T12:59:33.454Z,21.38
2022-10-31T13:02:13.499Z,21.76
2022-10-31T13:04:50.129Z,22.08
2022-10-31T13:07:32.526Z,22.09
2022-10-31T13:10:10.128Z,22.24
2022-10-31T13:12:42.119Z,21.68
2022-10-31T13:15:21.621Z,21.58
2022-10-31T13:17:59.311Z,22.16
2022-10-31T13:20:32.708Z,21.72
2022-10-31T13:23:30.004Z,21.93
2022-10-31T13:26:13.046Z,22.20
2022-10-31T13:31:17.090Z,22.23
2022-10-31T13:33:51.731Z,21.87
2022-10-31T13:36:33.465Z,21.77
2022-10-31T13:39:19.516Z,21.66
2022-10-31T13:41:54.400Z,21.91
2022-10-31T13:44:37.434Z,21.96
2022-10-31T13:47:30.777Z,21.67
2022-10-31T13:50:28.426Z,21.70
2022-10-31T13:53:15.915Z,21.38
2022-10-31T13:55:47.530Z,21.67
2022-10-31T13:58:27.312Z,21.83
2022-10-31T14:01:20.100Z,21.56
2022-10-31T14:04:14.909Z,21.50
2022-10-31T14:06:59.614Z,21.64
2022-10-31T14:09:33.445Z,21.64
2022-10-31T14:12:09.640Z,21.42
2022-10-31T14:14:50.470Z,21.52
2022-10-31T14:17:49.908Z,21.70
2022-10-31T14:20:35.090Z,21.64
2022-10-31T14:23:16.524Z,21.64
2022-10-31T14:25:46.456Z,21.67
2022-10-31T14:28:34.378Z,21.57
2022-10-31T14:31:03.384Z,21.29
2022-10-31T14:33:35.644Z,21.24
2022-10-31T14:36:19.750Z,21.43
2022-10-31T14:39:00.578Z,21.23
2022-10-31T14:41:50.859Z,21.06
2022-10-31T14:45:02.956Z,21.31
2022-10-31T14:47:48.036Z,21.01
2022-10-31T14:50:53.739Z,20.99
2022-10-31T14:53:36.942Z,20.76
2022-10-31T14:56:13.461Z,21.12
2022-10-31T14:58:48.423Z,21.04
2022-10-31T15:01:27.661Z,20.58
2022-10-31T15:04:24.355Z,20.49
2022-10-31T15:07:04.420Z,20.66
2022-10-31T15:09:37.004Z,20.39
2022-10-31T15:12:27.007Z,20.80
2022-10-31T15:15:00.193Z,20.72
2022-10-31T15:17:32.650Z,20.47
2022-10-31T15:20:13.724Z,20.36
2022-10-31T15:22:44.178Z,20.31
2022-10-31T15:25:22.161Z,20.28
2022-10-31T15:27:53.070Z,20.38
2022-10-31T15:30:27.005Z,20.23
2022-10-31T15:32:59.435Z,20.33
2022-10-31T15:35:30.734Z,20.40
2022-10-31T15:38:05.400Z,19.78
2022-10-31T15:40:34.550Z,20.04
2022-10-31T15:43:08.866Z,20.07
2022-10-31T15:45:37.948Z,19.89
2022-10-31T15:48:25.969Z,19.81
2022-10-31T15:50:58.577Z,20.24
2022-10-31T15:53:40.866Z,20.16
2022-10-31T15:56:17.180Z,19.80
2022-10-31T15:58:48.684Z,19.98
2022-10-31T16:01:26.881Z,19.83
2022-10-31T16:04:24.334Z,19.64
2022-10-31T16:07:04.013Z,19.79
2022-10-31T16:09:35.979Z,19.64
2022-10-31T16:12:07.044Z,19.51
2022-10-31T16:14:41.400Z,19.64
2022-10-31T16:17:15.548Z,19.49
2022-10-31T16:19:56.005Z,19.05
2022-10-31T16:22:34.517Z,19.40
2022-10-31T16:25:12.711Z,19.38
2022-10-31T16:27:53.912Z,19.48
2022-10-31T16:30:47.943Z,19.43
2022-10-31T16:33:29.506Z,19.23
2022-10-31T16:36:30.089Z,19.28
2022-10-31T16:38:54.867Z,19.40
2022-10-31T16:41:28.884Z,19.55
2022-10-31T16:43:57.830Z,19.00
2022-10-31T16:46:30.716Z,19.37
2022-10-31T16:49:00.997Z,19.17
2022-10-31T16:51:42.828Z,19.27
2022-10-31T16:54:12.133Z,19.51
2022-10-31T16:56:44.605Z,19.04
2022-10-31T16:59:16.508Z,18.91
2022-10-31T17:01:51.309Z,19.07
2022-10-31T17:04:20.245Z,19.22
2022-10-31T17:06:54.812Z,19.07
2022-10-31T17:09:34.066Z,19.31
2022-10-31T17:12:09.848Z,19.43
2022-10-31T17:14:48.273Z,19.21
2022-10-31T17:17:18.441Z,19.11
2022-10-31T17:19:49.000Z,18.92
2022-10-31T17:22:17.911Z,18.96
2022-10-31T17:24:47.370Z,19.42
2022-10-31T17:27:19.348Z,19.11
2022-10-31T17:29:48.360Z,19.27
2022-10-31T17:32:17.339Z,19.26
2022-10-31T17:34:50.374Z,19.19
2022-10-31T17:37:19.447Z,19.26
2022-10-31T17:39:48.825Z,19.23
2022-10-31T17:42:19.145Z,19.20
2022-10-31T17:45:04.458Z,18.72
2022-10-31T17:47:34.218Z,18.61
2022-10-31T17:50:07.219Z,18.87
2022-10-31T17:52:35.676Z,19.05
2022-10-31T17:55:04.807Z,18.46
2022-10-31T17:57:39.518Z,18.73
2022-10-31T18:00:15.601Z,18.26
2022-10-31T18:02:44.218Z,18.90
2022-10-31T18:05:13.241Z,18.43
2022-10-31T18:07:43.558Z,18.62
2022-10-31T18:10:12.447Z,18.44
2022-10-31T18:12:43.300Z,18.33
2022-10-31T18:15:13.201Z,18.61
2022-10-31T18:17:44.663Z,18.59
2022-10-31T18:20:13.948Z,18.37
2022-10-31T18:22:43.261Z,18.37
2022-10-31T18:25:12.375Z,18.23
2022-10-31T18:27:46.268Z,18.41
2022-10-31T18:30:18.112Z,18.15
2022-10-31T18:32:59.223Z,17.90
2022-10-31T18:35:32.897Z,18.29
2022-10-31T18:38:09.444Z,18.21
2022-10-31T18:40:38.810Z,18.12
2022-10-31T18:43:11.258Z,17.89
2022-10-31T18:45:49.525Z,17.91
2022-10-31T18:48:21.289Z,18.23
2022-10-31T18:50:59.388Z,17.90
2022-10-31T18:53:28.628Z,18.01
2022-10-31T18:55:59.783Z,18.09
2022-10-31T18:58:30.996Z,18.10
2022-10-31T19:01:02.252Z,17.81
2022-10-31T19:03:32.279Z,18.17
2022-10-31T19:06:03.012Z,18.17
2022-10-31T19:08:33.012Z,18.16
2022-10-31T19:11:09.182Z,18.17
2022-10-31T19:13:40.535Z,17.96
2022-10-31T19:16:15.694Z,17.94
2022-10-31T19:18:45.565Z,17.45
2022-10-31T19:21:16.888Z,17.48
2022-10-31T19:23:49.780Z,17.57
2022-10-31T19:26:18.797Z,17.54
2022-10-31T19:28:49.721Z,18.03
2022-10-31T19:31:19.043Z,18.16
2022-10-31T19:33:50.016Z,17.72
2022-10-31T19:36:21.222Z,18.05
2022-10-31T19:38:53.221Z,17.69
2022-10-31T19:41:27.668Z,17.58
2022-10-31T19:44:01.259Z,17.54
2022-10-31T19:46:52.360Z,17.26
2022-10-31T19:49:23.217Z,17.51
2022-10-31T19:51:52.396Z,17.26
2022-10-31T19:54:22.977Z,17.48
2022-10-31T19:56:52.398Z,17.52
2022-10-31T19:59:23.637Z,17.66
2022-10-31T20:01:52.578Z,17.84
2022-10-31T20:04:26.020Z,17.80
2022-10-31T20:06:56.003Z,17.66
2022-10-31T20:09:47.479Z,17.52
2022-10-31T20:12:16.840Z,17.34
2022-10-31T20:17:34.829Z,17.59
2022-10-31T20:20:08.714Z,17.50
2022-10-31T20:22:38.188Z,17.77
2022-10-31T20:25:08.526Z,17.53
2022-10-31T20:27:37.282Z,17.67
2022-10-31T20:30:12.373Z,17.48
2022-10-31T20:32:43.446Z,17.31
2022-10-31T20:35:15.390Z,17.21
2022-10-31T20:37:44.384Z,17.69
2022-10-31T20:40:13.871Z,17.91
2022-10-31T20:42:45.789Z,17.46
2022-10-31T20:45:16.307Z,17.33
2022-10-31T20:47:48.628Z,17.47
2022-10-31T20:50:19.666Z,17.74
2022-10-31T20:52:48.572Z,17.37
2022-10-31T20:55:18.741Z,17.72
2022-10-31T20:57:49.605Z,17.97
2022-10-31T21:03:31.922Z,17.98
2022-10-31T21:06:04.167Z,17.83
2022-10-31T21:08:38.011Z,17.58
2022-10-31T21:11:11.265Z,17.67
2022-10-31T21:13:43.213Z,17.65
2022-10-31T21:16:18.042Z,17.76
2022-10-31T21:18:49.331Z,17.67
2022-10-31T21:21:21.485Z,17.42
2022-10-31T21:23:55.197Z,17.71
2022-10-31T21:26:27.959Z,17.62
2022-10-31T21:28:59.490Z,17.68
2022-10-31T21:31:29.728Z,17.72
2022-10-31T21:33:59.611Z,17.83
2022-10-31T21:36:29.751Z,18.02
2022-10-31T21:39:01.515Z,17.68
2022-10-31T21:41:31.222Z,17.83
2022-10-31T21:44:01.873Z,17.82
2022-10-31T21:46:33.793Z,17.96
2022-10-31T21:49:05.010Z,17.88
2022-10-31T21:51:37.070Z,18.01
2022-10-31T21:54:25.461Z,17.78
2022-10-31T21:56:57.124Z,17.66
2022-10-31T21:59:28.487Z,18.45
2022-10-31T22:02:00.984Z,18.14
2022-10-31T22:04:29.915Z,17.88
2022-10-31T22:06:58.463Z,17.73
2022-10-31T22:09:27.814Z,17.75
2022-10-31T22:11:57.614Z,17.79
2022-10-31T22:14:26.834Z,17.72
2022-10-31T22:16:57.846Z,18.05
2022-10-31T22:19:29.335Z,17.63
2022-10-31T22:22:00.164Z,17.81
2022-10-31T22:24:29.944Z,18.04
2022-10-31T22:26:59.072Z,17.91
2022-10-31T22:29:29.153Z,17.85
2022-10-31T22:32:01.973Z,17.91
2022-10-31T22:34:31.348Z,18.06
2022-10-31T22:37:02.332Z,17.94
2022-10-31T22:39:31.421Z,17.50
2022-10-31T22:42:00.131Z,18.11
2022-10-31T22:44:29.726Z,17.94
2022-10-31T22:47:00.905Z,18.10
2022-10-31T22:49:30.408Z,17.87
2022-10-31T22:52:03.783Z,17.94
2022-10-31T22:54:43.988Z,17.88
2022-10-31T22:57:15.412Z,17.91
2022-10-31T22:59:45.117Z,18.36
2022-10-31T23:02:17.473Z,17.97
2022-10-31T23:04:47.948Z,18.22
2022-10-31T23:07:23.042Z,18.24
2022-10-31T23:09:55.226Z,17.95
2022-10-31T23:12:42.541Z,18.00
2022-10-31T23:15:13.344Z,17.88
2022-10-31T23:17:54.826Z,18.09
2022-10-31T23:20:25.853Z,18.57
2022-10-31T23:22:57.443Z,18.34
2022-10-31T23:25:45.419Z,17.99
2022-10-31T23:28:14.952Z,18.16
2022-10-31T23:30:48.015Z,18.20
2022-10-31T23:33:20.864Z,18.39
2022-10-31T23:35:49.454Z,17.98
2022-10-31T23:38:25.320Z,18.48
2022-10-31T23:40:54.263Z,18.14
2022-10-31T23:43:23.149Z,18.27
2022-10-31T23:45:52.169Z,18.29
2022-10-31T23:48:23.935Z,18.43
2022-10-31T23:50:53.750Z,18.25
2022-10-31T23:53:23.470Z,18.26
2022-10-31T23:55:58.285Z,17.74
2022-10-31T23:58:27.260Z,17.99
